createdAt,value
2024-02-12T00:00:32.740Z,10.65
2024-02-12T00:03:22.055Z,9.35
2024-02-12T00:06:09.311Z,10.82
2024-02-12T00:08:57.242Z,10.80
2024-02-12T00:11:44.679Z,9.18
2024-02-12T00:14:31.967Z,10.07
2024-02-12T00:17:19.165Z,9.45
2024-02-12T00:20:08.434Z,8.75
2024-02-12T00:22:56.595Z,9.70
2024-02-12T00:25:43.744Z,11.13
2024-02-12T00:28:30.931Z,9.43
2024-02-12T00:31:18.820Z,9.70
2024-02-12T00:34:06.062Z,10.38
2024-02-12T00:36:54.084Z,9.90
2024-02-12T00:39:41.288Z,10.80
2024-02-12T00:42:29.316Z,10.40
2024-02-12T00:45:17.344Z,10.43
2024-02-12T00:48:05.536Z,8.95
2024-02-12T00:50:53.164Z,10.57
2024-02-12T00:53:41.626Z,10.68
2024-02-12T00:56:29.105Z,12.52
2024-02-12T00:59:16.677Z,12.60
2024-02-12T01:02:05.422Z,11.18
2024-02-12T01:04:53.387Z,13.38
2024-02-12T01:07:42.291Z,12.20
2024-02-12T01:10:29.486Z,12.20
2024-02-12T01:13:16.689Z,11.95
2024-02-12T01:16:04.140Z,12.52
2024-02-12T01:18:53.068Z,11.27
2024-02-12T01:21:40.894Z,11.43
2024-02-12T01:24:28.029Z,14.23
2024-02-12T01:27:15.518Z,14.63
2024-02-12T01:30:04.636Z,13.52
2024-02-12T01:32:51.863Z,14.80
2024-02-12T01:35:39.592Z,14.85
2024-02-12T01:38:27.987Z,13.95
2024-02-12T01:41:18.427Z,13.32
2024-02-12T01:44:05.945Z,14.02
2024-02-12T01:46:54.824Z,12.98
2024-02-12T01:49:43.389Z,14.07
2024-02-12T01:52:32.353Z,14.90
2024-02-12T01:55:22.205Z,14.52
2024-02-12T01:58:10.933Z,13.98
2024-02-12T02:00:59.208Z,14.85
2024-02-12T02:03:48.154Z,13.88
2024-02-12T02:06:35.465Z,14.82
2024-02-12T02:09:22.681Z,13.82
2024-02-12T02:12:10.413Z,15.13
2024-02-12T02:14:58.363Z,13.10
2024-02-12T02:17:45.667Z,12.20
2024-02-12T02:20:33.373Z,13.90
2024-02-12T02:23:20.659Z,13.32
2024-02-12T02:26:07.977Z,14.30
2024-02-12T02:28:57.532Z,13.15
2024-02-12T02:31:44.810Z,14.57
2024-02-12T02:34:32.039Z,14.18
2024-02-12T02:37:19.864Z,14.25
2024-02-12T02:40:09.967Z,13.75
2024-02-12T02:42:58.020Z,13.90
2024-02-12T02:45:45.133Z,15.35
2024-02-12T02:48:34.347Z,14.10
2024-02-12T02:51:28.164Z,13.48
2024-02-12T02:54:15.755Z,15.60
2024-02-12T02:57:03.039Z,14.75
2024-02-12T02:59:50.170Z,13.68
2024-02-12T03:02:37.317Z,13.88
2024-02-12T03:05:26.049Z,13.75
2024-02-12T03:08:13.340Z,14.20
2024-02-12T03:11:02.717Z,13.48
2024-02-12T03:13:53.161Z,15.25
2024-02-12T03:16:40.387Z,14.85
2024-02-12T03:19:27.620Z,14.77
2024-02-12T03:22:15.338Z,14.10
2024-02-12T03:25:02.878Z,15.15
2024-02-12T03:27:50.061Z,16.17
2024-02-12T03:30:37.326Z,15.65
2024-02-12T03:33:24.424Z,15.27
2024-02-12T03:36:12.038Z,16.38
2024-02-12T03:39:01.949Z,16.67
2024-02-12T03:41:49.195Z,16.88
2024-02-12T03:44:36.730Z,15.48
2024-02-12T03:47:39.226Z,15.85
2024-02-12T03:50:45.678Z,16.48
2024-02-12T03:53:51.517Z,18.00
2024-02-12T03:56:57.958Z,17.65
2024-02-12T03:59:54.941Z,18.33
2024-02-12T04:02:42.248Z,16.17
2024-02-12T04:05:29.747Z,18.73
2024-02-12T04:08:17.895Z,17.35
2024-02-12T04:11:06.291Z,17.70
2024-02-12T04:13:55.805Z,17.15
2024-02-12T04:16:52.644Z,17.40
2024-02-12T04:19:40.088Z,18.42
2024-02-12T04:22:27.823Z,14.07
2024-02-12T04:25:15.310Z,17.58
2024-02-12T04:28:04.829Z,16.10
2024-02-12T04:30:52.248Z,15.52
2024-02-12T04:33:40.526Z,17.52
2024-02-12T04:36:27.792Z,17.63
2024-02-12T04:39:18.450Z,18.38
2024-02-12T04:42:06.554Z,18.85
2024-02-12T04:44:53.696Z,18.98
2024-02-12T04:47:41.106Z,17.60
2024-02-12T04:50:28.486Z,18.33
2024-02-12T04:53:16.221Z,14.95
2024-02-12T04:56:05.916Z,17.35
2024-02-12T04:58:55.203Z,17.40
2024-02-12T05:01:42.786Z,19.08
2024-02-12T05:04:30.693Z,16.30
2024-02-12T05:07:18.100Z,15.35
2024-02-12T05:10:06.113Z,17.58
2024-02-12T05:12:53.261Z,16.30
2024-02-12T05:15:40.843Z,15.23
2024-02-12T05:18:46.575Z,16.08
2024-02-12T05:21:52.405Z,16.15
2024-02-12T05:24:40.202Z,16.85
2024-02-12T05:27:29.029Z,18.27
2024-02-12T05:30:16.370Z,15.65
2024-02-12T05:33:03.843Z,16.65
2024-02-12T05:35:51.095Z,16.63
2024-02-12T05:38:40.639Z,17.83
2024-02-12T05:41:27.925Z,16.83
2024-02-12T05:44:17.054Z,15.77
2024-02-12T05:47:07.228Z,16.98
2024-02-12T05:49:56.156Z,13.23
2024-02-12T05:52:43.489Z,15.15
2024-02-12T05:55:30.803Z,14.23
2024-02-12T05:58:17.922Z,13.68
2024-02-12T06:01:05.225Z,14.23
2024-02-12T06:03:52.629Z,15.73
2024-02-12T06:06:41.274Z,13.18
2024-02-12T06:09:29.492Z,11.60
2024-02-12T06:12:16.655Z,11.73
2024-02-12T06:15:04.078Z,11.30
2024-02-12T06:17:51.529Z,12.57
2024-02-12T06:20:39.074Z,13.73
2024-02-12T06:23:26.546Z,15.15
2024-02-12T06:26:22.064Z,15.50
2024-02-12T06:29:11.982Z,16.25
2024-02-12T06:31:59.212Z,16.58
2024-02-12T06:34:49.102Z,18.05
2024-02-12T06:37:38.759Z,18.70
2024-02-12T06:40:25.901Z,17.20
2024-02-12T06:43:13.140Z,19.90
2024-02-12T06:46:00.302Z,19.00
2024-02-12T06:48:50.977Z,18.17
2024-02-12T06:51:42.098Z,19.27
2024-02-12T06:54:30.315Z,18.85
2024-02-12T06:57:18.507Z,19.10
2024-02-12T07:00:06.644Z,17.98
2024-02-12T07:02:55.466Z,17.00
2024-02-12T07:05:43.025Z,17.67
2024-02-12T07:08:30.292Z,18.73
2024-02-12T07:11:17.854Z,19.27
2024-02-12T07:14:05.201Z,19.45
2024-02-12T07:16:52.365Z,17.70
2024-02-12T07:19:53.032Z,18.73
2024-02-12T07:22:40.235Z,17.15
2024-02-12T07:25:27.425Z,17.52
2024-02-12T07:28:14.707Z,18.33
2024-02-12T07:31:02.025Z,16.83
2024-02-12T07:33:49.504Z,16.52
2024-02-12T07:36:45.883Z,17.63
2024-02-12T07:39:33.328Z,15.60
2024-02-12T07:42:20.511Z,15.27
2024-02-12T07:45:08.787Z,15.40
2024-02-12T07:47:57.519Z,14.00
2024-02-12T07:50:45.152Z,15.27
2024-02-12T07:53:32.463Z,14.95
2024-02-12T07:56:20.382Z,14.38
2024-02-12T07:59:07.738Z,12.82
2024-02-12T08:01:55.899Z,14.70
2024-02-12T08:04:45.613Z,13.15
2024-02-12T08:07:41.828Z,14.18
2024-02-12T08:10:39.426Z,12.45
2024-02-12T08:13:26.606Z,16.27
2024-02-12T08:16:13.848Z,14.93
2024-02-12T08:19:02.688Z,15.15
2024-02-12T08:21:49.980Z,16.10
2024-02-12T08:24:37.117Z,15.60
2024-02-12T08:27:24.249Z,15.65
2024-02-12T08:30:12.465Z,16.98
2024-02-12T08:33:00.493Z,15.73
2024-02-12T08:35:47.913Z,15.75
2024-02-12T08:38:35.201Z,16.55
2024-02-12T08:41:26.919Z,16.42
2024-02-12T08:44:14.178Z,14.20
2024-02-12T08:47:01.507Z,15.50
2024-02-12T08:49:48.751Z,15.10
2024-02-12T08:52:35.925Z,12.55
2024-02-12T08:55:24.017Z,14.35
2024-02-12T08:58:12.282Z,14.05
2024-02-12T09:00:59.488Z,10.07
2024-02-12T09:03:47.601Z,14.13
2024-02-12T09:06:36.242Z,12.70
2024-02-12T09:09:23.533Z,13.98
2024-02-12T09:12:11.099Z,12.57
2024-02-12T09:14:58.814Z,13.90
2024-02-12T09:17:46.183Z,13.10
2024-02-12T09:20:33.491Z,13.30
2024-02-12T09:23:22.980Z,11.52
2024-02-12T09:26:10.570Z,10.38
2024-02-12T09:28:59.626Z,11.35
2024-02-12T09:31:46.852Z,11.68
2024-02-12T09:34:34.184Z,12.98
2024-02-12T09:37:21.556Z,12.05
2024-02-12T09:40:10.375Z,12.73
2024-02-12T09:42:58.862Z,13.00
2024-02-12T09:45:46.524Z,14.38
2024-02-12T09:48:34.103Z,12.95
2024-02-12T09:51:24.908Z,11.50
2024-02-12T09:54:13.595Z,12.57
2024-02-12T09:57:03.004Z,11.98
2024-02-12T09:59:52.278Z,10.80
2024-02-12T10:02:41.547Z,12.15
2024-02-12T10:05:32.076Z,10.10
2024-02-12T10:08:31.981Z,12.18
2024-02-12T10:11:25.664Z,9.43
2024-02-12T10:14:14.438Z,9.25
2024-02-12T10:17:02.907Z,8.48
2024-02-12T10:19:50.158Z,10.90
2024-02-12T10:22:40.157Z,7.72
2024-02-12T10:25:27.328Z,9.27
2024-02-12T10:28:19.827Z,10.75
2024-02-12T10:31:07.602Z,10.15
2024-02-12T10:33:59.250Z,9.45
2024-02-12T10:36:49.483Z,9.02
2024-02-12T10:39:38.989Z,9.02
2024-02-12T10:42:41.307Z,8.30
2024-02-12T10:45:29.715Z,9.25
2024-02-12T10:48:18.697Z,6.50
2024-02-12T10:51:06.864Z,7.68
2024-02-12T10:53:54.316Z,7.32
2024-02-12T10:56:41.683Z,7.70
2024-02-12T10:59:28.937Z,8.63
2024-02-12T11:02:16.822Z,9.18
2024-02-12T11:05:05.076Z,8.93
2024-02-12T11:08:12.286Z,8.27
2024-02-12T11:11:01.797Z,8.80
2024-02-12T11:13:53.717Z,8.32
2024-02-12T11:16:41.883Z,9.43
2024-02-12T11:19:30.018Z,7.05
2024-02-12T11:22:27.702Z,6.93
2024-02-12T11:25:23.468Z,10.13
2024-02-12T11:28:16.071Z,8.00
2024-02-12T11:31:05.845Z,10.15
2024-02-12T11:33:53.139Z,10.38
2024-02-12T11:36:41.775Z,9.45
2024-02-12T11:39:30.213Z,9.30
2024-02-12T11:42:21.609Z,9.38
2024-02-12T11:48:09.399Z,9.13
2024-02-12T11:50:56.989Z,10.00
2024-02-12T11:53:57.972Z,10.02
2024-02-12T11:59:32.837Z,11.98
2024-02-12T12:02:20.498Z,10.98
2024-02-12T12:05:11.362Z,10.13
2024-02-12T12:08:02.072Z,10.25
2024-02-12T12:10:49.359Z,11.52
2024-02-12T12:13:36.571Z,10.68
2024-02-12T12:16:24.603Z,12.90
2024-02-12T12:19:11.861Z,11.32
2024-02-12T12:21:59.228Z,11.43
2024-02-12T12:24:46.410Z,12.10
2024-02-12T12:27:35.114Z,11.73
2024-02-12T12:30:23.649Z,11.32
2024-02-12T12:33:11.045Z,11.77
2024-02-12T12:35:58.519Z,11.40
2024-02-12T12:38:45.814Z,11.70
2024-02-12T12:41:34.270Z,11.50
2024-02-12T12:44:23.659Z,11.80
2024-02-12T12:47:12.824Z,11.95
2024-02-12T12:50:00.109Z,11.75
2024-02-12T12:52:47.346Z,12.90
2024-02-12T12:55:34.567Z,11.15
2024-02-12T12:58:22.000Z,12.70
2024-02-12T13:01:10.962Z,9.40
2024-02-12T13:04:00.779Z,10.38
2024-02-12T13:06:51.343Z,10.18
2024-02-12T13:09:39.937Z,10.40
2024-02-12T13:12:27.259Z,10.07
2024-02-12T13:15:15.862Z,10.57
2024-02-12T13:18:03.581Z,10.30
2024-02-12T13:20:52.263Z,11.00
2024-02-12T13:23:40.704Z,10.70
2024-02-12T13:26:27.975Z,10.82
2024-02-12T13:29:24.277Z,8.38
2024-02-12T13:32:12.569Z,7.05
2024-02-12T13:34:59.807Z,7.43
2024-02-12T13:37:47.092Z,7.00
2024-02-12T13:40:34.334Z,6.32
2024-02-12T13:43:22.914Z,6.82
2024-02-12T13:46:13.496Z,5.22
2024-02-12T13:49:01.785Z,4.00
2024-02-12T13:51:49.012Z,3.38
2024-02-12T13:54:40.869Z,2.75
2024-02-12T13:57:29.304Z,2.95
2024-02-12T14:00:43.418Z,3.10
2024-02-12T14:03:28.153Z,2.03
2024-02-12T14:06:17.464Z,2.20
2024-02-12T14:09:08.363Z,2.88
2024-02-12T14:11:55.526Z,2.28
2024-02-12T14:14:43.164Z,2.47
2024-02-12T14:17:30.546Z,2.10
2024-02-12T14:20:20.849Z,2.08
2024-02-12T14:23:11.708Z,2.67
2024-02-12T14:25:59.359Z,2.53
2024-02-12T14:28:46.546Z,2.60
2024-02-12T14:32:34.012Z,2.13
2024-02-12T14:34:46.794Z,2.45
2024-02-12T14:37:36.264Z,2.65
2024-02-12T14:40:25.012Z,2.80
2024-02-12T14:43:15.426Z,2.50
2024-02-12T14:46:03.141Z,2.53
2024-02-12T14:48:50.516Z,1.27
2024-02-12T14:51:37.804Z,1.83
2024-02-12T14:54:24.967Z,1.73
2024-02-12T14:57:13.267Z,1.70
2024-02-12T15:00:00.677Z,1.70
2024-02-12T15:02:50.455Z,1.60
2024-02-12T15:05:38.138Z,1.40
2024-02-12T15:08:25.420Z,1.42
2024-02-12T15:11:13.786Z,1.13
2024-02-12T15:14:01.179Z,1.10
2024-02-12T15:16:52.071Z,1.17
2024-02-12T15:19:39.277Z,1.20
2024-02-12T15:22:26.477Z,1.70
2024-02-12T15:25:13.815Z,1.13
2024-02-12T15:28:03.121Z,1.10
2024-02-12T15:30:51.165Z,1.00
2024-02-12T15:33:40.422Z,1.33
2024-02-12T15:36:28.434Z,1.10
2024-02-12T15:39:15.688Z,0.90
2024-02-12T15:42:07.040Z,1.20
2024-02-12T15:44:55.496Z,1.00
2024-02-12T15:47:46.494Z,1.05
2024-02-12T15:50:33.988Z,1.08
2024-02-12T15:53:22.723Z,1.17
2024-02-12T15:56:16.518Z,1.33
2024-02-12T15:59:03.966Z,0.95
2024-02-12T16:01:57.507Z,1.58
2024-02-12T16:04:45.705Z,1.23
2024-02-12T16:07:32.862Z,1.23
2024-02-12T16:10:20.292Z,1.23
2024-02-12T16:13:09.833Z,1.38
2024-02-12T16:15:59.204Z,1.10
2024-02-12T16:18:48.373Z,1.50
2024-02-12T16:21:35.689Z,1.23
2024-02-12T16:24:23.174Z,1.30
2024-02-12T16:27:10.684Z,1.10
2024-02-12T16:29:58.086Z,1.10
2024-02-12T16:32:46.600Z,1.17
2024-02-12T16:35:34.682Z,1.20
2024-02-12T16:38:22.262Z,1.70
2024-02-12T16:41:09.815Z,1.55
2024-02-12T16:43:57.127Z,1.88
2024-02-12T16:46:45.801Z,1.80
2024-02-12T16:49:33.003Z,1.10
2024-02-12T16:52:20.205Z,1.42
2024-02-12T16:55:08.018Z,1.50
2024-02-12T16:57:55.631Z,1.58
2024-02-12T17:00:43.057Z,1.85
2024-02-12T17:03:30.790Z,1.42
2024-02-12T17:06:20.883Z,1.50
2024-02-12T17:09:12.379Z,1.33
2024-02-12T17:11:59.702Z,1.60
2024-02-12T17:14:47.450Z,1.55
2024-02-12T17:17:34.886Z,1.52
2024-02-12T17:20:22.277Z,2.67
2024-02-12T17:23:11.186Z,1.73
2024-02-12T17:25:58.414Z,2.05
2024-02-12T17:28:45.600Z,2.38
2024-02-12T17:31:32.837Z,1.58
2024-02-12T17:34:20.314Z,2.08
2024-02-12T17:37:09.578Z,1.92
2024-02-12T17:39:56.771Z,2.10
2024-02-12T17:42:43.997Z,2.00
2024-02-12T17:45:31.171Z,2.20
2024-02-12T17:48:18.546Z,1.90
2024-02-12T17:51:06.047Z,2.28
2024-02-12T17:53:53.315Z,2.20
2024-02-12T17:56:40.529Z,2.20
2024-02-12T17:59:27.767Z,2.15
2024-02-12T18:02:18.848Z,1.75
2024-02-12T18:07:54.697Z,2.30
2024-02-12T18:10:41.822Z,2.20
2024-02-12T18:13:29.573Z,2.00
2024-02-12T18:16:16.755Z,2.20
2024-02-12T18:19:04.038Z,1.58
2024-02-12T18:21:52.976Z,1.80
2024-02-12T18:24:40.300Z,2.00
2024-02-12T18:27:27.432Z,2.25
2024-02-12T18:30:16.104Z,2.25
2024-02-12T18:33:04.950Z,1.67
2024-02-12T18:35:53.528Z,1.65
2024-02-12T18:38:41.001Z,1.73
2024-02-12T18:41:30.591Z,2.00
2024-02-12T18:44:18.487Z,1.77
2024-02-12T18:47:05.925Z,1.90
2024-02-12T18:49:54.901Z,1.90
2024-02-12T18:52:42.754Z,1.73
2024-02-12T18:55:31.342Z,1.80
2024-02-12T18:58:18.526Z,1.67
2024-02-12T19:01:06.177Z,1.98
2024-02-12T19:03:57.039Z,1.98
2024-02-12T19:06:46.725Z,2.35
2024-02-12T19:09:34.554Z,1.95
2024-02-12T19:12:21.785Z,2.35
2024-02-12T19:15:10.686Z,2.28
2024-02-12T19:17:58.731Z,2.60
2024-02-12T19:20:47.270Z,2.10
2024-02-12T19:23:34.667Z,2.35
2024-02-12T19:26:22.482Z,2.00
2024-02-12T19:29:13.848Z,2.75
2024-02-12T19:34:49.214Z,3.45
2024-02-12T19:37:39.106Z,2.63
2024-02-12T19:40:33.158Z,3.50
2024-02-12T19:43:20.435Z,3.90
2024-02-12T19:46:07.627Z,4.53
2024-02-12T19:48:55.612Z,4.05
2024-02-12T19:51:42.943Z,3.90
2024-02-12T19:54:30.671Z,4.40
2024-02-12T19:57:17.813Z,3.38
2024-02-12T20:00:07.720Z,3.10
2024-02-12T20:05:45.041Z,2.90
2024-02-12T20:08:32.545Z,3.10
2024-02-12T20:11:20.286Z,3.17
2024-02-12T20:14:07.623Z,2.92
2024-02-12T20:16:56.028Z,2.85
2024-02-12T20:19:43.620Z,2.92
2024-02-12T20:22:30.844Z,2.75
2024-02-12T20:25:18.489Z,2.60
2024-02-12T20:28:07.647Z,3.55
2024-02-12T20:30:56.274Z,2.78
2024-02-12T20:33:43.646Z,3.03
2024-02-12T20:36:30.985Z,3.15
2024-02-12T20:39:18.205Z,3.83
2024-02-12T20:42:08.204Z,4.35
2024-02-12T20:44:55.354Z,3.80
2024-02-12T20:47:42.921Z,4.20
2024-02-12T20:50:31.784Z,3.40
2024-02-12T20:53:19.369Z,4.45
2024-02-12T20:56:07.361Z,4.20
2024-02-12T20:58:54.588Z,5.15
2024-02-12T21:01:43.465Z,4.20
2024-02-12T21:04:31.537Z,3.88
2024-02-12T21:07:18.868Z,3.58
2024-02-12T21:10:06.838Z,4.15
2024-02-12T21:12:54.080Z,3.55
2024-02-12T21:15:41.717Z,4.03
2024-02-12T21:18:28.993Z,4.20
2024-02-12T21:21:16.322Z,5.13
2024-02-12T21:24:04.393Z,4.25
2024-02-12T21:26:51.631Z,4.65
2024-02-12T21:29:42.528Z,3.88
2024-02-12T21:32:30.172Z,3.90
2024-02-12T21:35:21.460Z,4.13
2024-02-12T21:38:09.083Z,4.38
2024-02-12T21:41:16.296Z,4.47
2024-02-12T21:44:04.800Z,4.38
2024-02-12T21:46:52.154Z,3.72
2024-02-12T21:49:39.428Z,4.20
2024-02-12T21:52:27.063Z,4.90
2024-02-12T21:55:15.395Z,4.47
2024-02-12T21:58:02.706Z,5.65
2024-02-12T22:00:49.894Z,4.90
2024-02-12T22:03:38.153Z,4.93
2024-02-12T22:06:25.664Z,5.15
2024-02-12T22:09:12.932Z,5.13
2024-02-12T22:12:01.238Z,5.95
2024-02-12T22:14:49.876Z,6.22
2024-02-12T22:17:42.119Z,6.28
2024-02-12T22:20:30.112Z,5.78
2024-02-12T22:23:17.347Z,7.82
2024-02-12T22:26:05.865Z,6.70
2024-02-12T22:28:53.203Z,7.53
2024-02-12T22:31:44.191Z,6.50
2024-02-12T22:34:31.630Z,6.85
2024-02-12T22:37:19.687Z,6.60
2024-02-12T22:40:09.890Z,6.53
2024-02-12T22:42:57.997Z,7.57
2024-02-12T22:45:46.661Z,7.03
2024-02-12T22:48:34.163Z,7.18
2024-02-12T22:51:21.722Z,7.40
2024-02-12T22:54:12.182Z,7.47
2024-02-12T22:56:59.414Z,8.02
2024-02-12T22:59:46.647Z,8.35
2024-02-12T23:02:35.629Z,9.35
2024-02-12T23:05:22.879Z,10.50
2024-02-12T23:08:12.074Z,9.35
2024-02-12T23:10:59.327Z,9.68
2024-02-12T23:13:46.698Z,9.20
2024-02-12T23:16:33.963Z,10.07
2024-02-12T23:19:24.246Z,10.55
2024-02-12T23:22:14.514Z,9.40
2024-02-12T23:25:01.712Z,9.90
2024-02-12T23:27:49.408Z,11.07
2024-02-12T23:30:36.571Z,10.63
2024-02-12T23:33:23.952Z,11.52
2024-02-12T23:36:12.152Z,11.40
2024-02-12T23:38:59.449Z,11.10
2024-02-12T23:41:47.358Z,12.05
2024-02-12T23:44:34.898Z,11.80
2024-02-12T23:47:22.136Z,10.70
2024-02-12T23:50:13.160Z,12.43
2024-02-12T23:53:00.827Z,11.90
2024-02-12T23:55:48.012Z,10.93
2024-02-12T23:58:35.179Z,12.27
